Time;durP1;ratioP1;P1;durP2;ratioP2;P2;SDS_P1;SDS_P2;PMS_P1;PMS_P2;Temp;Humidity;BMP_temperature;BMP_pressure;BME280_temperature;BME280_humidity;BME280_pressure;Samples;Min_cycle;Max_cycle;Signal;HPM_P1;HPM_P2
2022/02/01 00:02:09;;;;;;;;;13.00;13.00;;;;;10.56;54.98;99933.59;146606;621;46012;-72
2022/02/01 00:11:37;;;;;;;;;10.50;10.25;;;;;10.47;54.75;99877.94;146607;569;46020;-70
2022/02/01 00:14:59;;;;;;;;;12.00;11.25;;;;;10.46;54.95;99876.16;146605;570;46011;-72
2022/02/01 00:34:01;;;;;;;;;12.50;11.75;;;;;10.80;54.23;99886.94;146601;617;47010;-70
2022/02/01 00:36:59;;;;;;;;;7.00;6.00;;;;;10.78;55.27;99887.75;146607;581;46008;-80
2022/02/01 00:39:57;;;;;;;;;16.25;15.75;;;;;10.82;54.05;99880.13;146602;625;46010;-79
2022/02/01 00:42:50;;;;;;;;;8.75;8.75;;;;;10.83;54.85;99875.81;146604;591;47013;-79
2022/02/01 00:45:42;;;;;;;;;13.00;12.00;;;;;10.85;54.33;99869.84;146604;625;46012;-81
2022/02/01 00:48:35;;;;;;;;;14.75;13.00;;;;;10.87;54.50;99854.34;146602;610;46020;-80
2022/02/01 00:51:27;;;;;;;;;14.25;11.50;;;;;10.86;54.99;99858.63;146596;595;46017;-81
2022/02/01 00:54:20;;;;;;;;;13.25;11.50;;;;;10.88;54.48;99856.13;146601;653;46020;-81
2022/02/01 00:57:13;;;;;;;;;15.00;12.75;;;;;10.92;53.41;99842.44;146596;579;46013;-79
2022/02/01 01:00:09;;;;;;;;;12.25;11.00;;;;;10.92;53.38;99837.25;146597;569;47008;-80
2022/02/01 01:03:01;;;;;;;;;15.50;11.50;;;;;10.93;52.16;99831.22;146597;570;46016;-79
2022/02/01 01:05:54;;;;;;;;;17.25;12.75;;;;;10.97;52.36;99852.97;146599;610;47008;-78
2022/02/01 01:08:47;;;;;;;;;12.50;10.00;;;;;11.01;51.84;99866.09;146596;603;46016;-81
2022/02/01 01:11:39;;;;;;;;;11.75;11.25;;;;;11.06;51.83;99846.41;146600;668;46008;-80
2022/02/01 01:15:06;;;;;;;;;13.00;10.50;;;;;11.07;51.72;99829.12;146598;612;46016;-80
2022/02/01 01:43:40;;;;;;;;;16.25;14.50;;;;;11.13;54.33;99792.12;146600;580;46024;-70
2022/02/01 01:52:59;;;;;;;;;12.25;10.75;;;;;11.09;54.34;99776.47;146598;577;47012;-72
2022/02/01 01:56:05;;;;;;;;;12.75;12.00;;;;;11.00;54.42;99745.03;146604;579;46017;-68
2022/02/01 01:59:00;;;;;;;;;12.00;10.75;;;;;10.93;56.44;99724.00;146603;615;46031;-68
2022/02/01 02:01:53;;;;;;;;;13.75;12.75;;;;;10.91;57.32;99736.06;146604;566;46012;-68
2022/02/01 02:04:45;;;;;;;;;16.75;13.75;;;;;10.88;56.41;99718.66;146604;570;46010;-68
2022/02/01 02:07:37;;;;;;;;;13.50;13.00;;;;;10.84;56.10;99680.47;146606;600;47012;-68
2022/02/01 02:10:35;;;;;;;;;11.25;10.25;;;;;10.82;54.38;99690.81;146603;581;46016;-68
2022/02/01 02:16:37;;;;;;;;;14.75;11.00;;;;;10.91;52.19;99699.75;146604;616;46010;-68
2022/02/01 02:19:32;;;;;;;;;14.25;11.50;;;;;10.98;51.94;99705.16;146607;597;46008;-68
2022/02/01 02:22:24;;;;;;;;;11.75;11.25;;;;;11.05;51.97;99711.44;146601;566;46016;-69
2022/02/01 02:25:17;;;;;;;;;13.00;11.25;;;;;11.07;51.54;99700.28;146606;596;46008;-70
2022/02/01 02:28:13;;;;;;;;;11.00;10.75;;;;;11.06;51.80;99697.66;146603;593;46017;-70
2022/02/01 02:31:06;;;;;;;;;10.75;9.75;;;;;11.10;51.62;99678.75;146603;584;46020;-70
2022/02/01 02:34:12;;;;;;;;;13.25;11.00;;;;;11.05;53.21;99670.81;146603;575;46016;-70
2022/02/01 02:37:12;;;;;;;;;13.75;12.00;;;;;11.06;53.56;99672.59;146603;642;47008;-70
2022/02/01 02:40:19;;;;;;;;;13.50;12.00;;;;;11.07;53.39;99676.94;146603;565;46010;-70
2022/02/01 02:46:28;;;;;;;;;12.50;11.75;;;;;11.06;53.17;99682.09;146600;598;46016;-71
2022/02/01 02:49:27;;;;;;;;;14.00;11.00;;;;;11.08;52.86;99690.78;146603;570;47013;-70
2022/02/01 02:52:19;;;;;;;;;11.00;9.00;;;;;11.15;52.71;99674.56;146602;585;46016;-75
2022/02/01 02:55:12;;;;;;;;;11.75;9.50;;;;;11.15;53.64;99684.94;146606;611;46008;-77
2022/02/01 02:58:04;;;;;;;;;13.75;11.50;;;;;11.19;52.36;99680.78;146602;576;46017;-75
2022/02/01 03:00:56;;;;;;;;;12.25;12.25;;;;;11.20;52.63;99678.19;146605;605;47008;-76
2022/02/01 03:03:49;;;;;;;;;11.50;9.75;;;;;11.25;52.05;99666.28;146602;569;46016;-73
2022/02/01 03:06:42;;;;;;;;;13.00;11.00;;;;;11.27;51.53;99669.78;146606;564;46020;-73
2022/02/01 03:09:39;;;;;;;;;11.75;10.75;;;;;11.31;51.71;99681.16;146602;613;47010;-75
2022/02/01 03:12:55;;;;;;;;;11.50;8.50;;;;;11.33;51.54;99680.34;146604;594;47008;-72
2022/02/01 03:15:52;;;;;;;;;10.00;9.50;;;;;11.38;51.76;99680.50;146604;588;47010;-71
2022/02/01 03:21:55;;;;;;;;;12.00;12.00;;;;;11.34;52.57;99702.03;146601;683;46016;-71
2022/02/01 03:24:47;;;;;;;;;12.50;9.00;;;;;11.33;52.46;99711.50;146608;571;46008;-68
2022/02/01 03:27:39;;;;;;;;;12.25;9.75;;;;;11.27;52.97;99697.44;146604;608;46017;-70
2022/02/01 03:30:32;;;;;;;;;10.00;9.50;;;;;11.23;53.28;99691.28;146606;600;45020;-71
2022/02/01 03:33:24;;;;;;;;;9.75;9.00;;;;;11.25;52.89;99680.97;146602;688;47010;-71
2022/02/01 03:36:17;;;;;;;;;11.75;10.75;;;;;11.24;54.24;99679.19;146607;614;46020;-72
2022/02/01 03:39:10;;;;;;;;;12.25;10.50;;;;;11.20;54.28;99659.16;146603;589;46010;-68
2022/02/01 03:42:02;;;;;;;;;11.75;10.25;;;;;11.21;53.98;99663.50;146607;605;46008;-70
2022/02/01 03:44:54;;;;;;;;;13.50;11.75;;;;;11.21;53.44;99661.78;146602;602;47010;-73
2022/02/01 03:47:47;;;;;;;;;12.00;10.25;;;;;11.20;52.92;99647.06;146605;653;46008;-71
2022/02/01 03:50:39;;;;;;;;;15.25;11.25;;;;;11.23;52.71;99635.91;146605;564;46010;-71
2022/02/01 03:53:31;;;;;;;;;14.00;13.50;;;;;11.23;52.83;99620.34;146605;600;47008;-71
2022/02/01 03:56:24;;;;;;;;;16.50;12.75;;;;;11.23;52.67;99616.03;146599;576;46017;-71
2022/02/01 03:59:16;;;;;;;;;12.25;11.50;;;;;11.25;52.28;99623.88;146604;576;46020;-71
2022/02/01 04:02:09;;;;;;;;;9.00;8.00;;;;;11.24;53.22;99611.72;146603;589;47010;-71
2022/02/01 04:05:01;;;;;;;;;13.75;11.00;;;;;11.25;52.47;99609.19;146606;609;46020;-72
2022/02/01 04:07:53;;;;;;;;;16.25;12.00;;;;;11.26;53.21;99607.47;146603;625;46016;-71
2022/02/01 04:10:48;;;;;;;;;10.50;9.75;;;;;11.29;53.37;99624.00;146606;587;46020;-70
2022/02/01 04:13:42;;;;;;;;;11.00;9.00;;;;;11.30;52.62;99614.50;146604;590;46028;-72
2022/02/01 04:16:34;;;;;;;;;6.75;6.75;;;;;11.25;53.26;99606.59;146606;581;46020;-71
2022/02/01 04:19:29;;;;;;;;;8.50;7.50;;;;;11.25;54.00;99619.56;146604;648;47010;-79
2022/02/01 04:22:21;;;;;;;;;9.50;7.50;;;;;11.24;54.14;99624.69;146607;582;46020;-76
2022/02/01 04:25:13;;;;;;;;;12.00;9.00;;;;;11.27;53.76;99620.47;146603;578;46015;-73
2022/02/01 04:28:06;;;;;;;;;10.50;10.25;;;;;11.30;53.36;99628.34;146605;600;46020;-74
2022/02/01 04:30:58;;;;;;;;;10.25;8.00;;;;;11.33;53.87;99631.03;146605;671;46010;-75
2022/02/01 04:33:50;;;;;;;;;7.75;7.00;;;;;11.28;54.39;99617.06;146607;601;46008;-75
2022/02/01 04:36:43;;;;;;;;;9.75;9.75;;;;;11.36;53.58;99617.28;146601;571;47012;-70
2022/02/01 04:39:35;;;;;;;;;11.25;10.50;;;;;11.35;54.28;99623.31;146605;638;47008;-69
2022/02/01 04:42:32;;;;;;;;;10.00;8.75;;;;;11.35;54.98;99625.03;146601;613;46017;-69
2022/02/01 04:45:26;;;;;;;;;8.00;8.00;;;;;11.36;54.61;99622.47;146606;598;46008;-70
2022/02/01 04:48:19;;;;;;;;;11.50;10.50;;;;;11.36;54.55;99604.31;146601;577;46016;-72
2022/02/01 04:51:11;;;;;;;;;13.00;9.00;;;;;11.40;53.64;99600.06;146606;617;46020;-71
2022/02/01 04:54:03;;;;;;;;;8.75;8.75;;;;;11.41;54.07;99628.69;146606;615;45917;-73
2022/02/01 04:56:56;;;;;;;;;8.50;7.50;;;;;11.41;54.05;99638.19;146606;604;46020;-72
2022/02/01 04:59:48;;;;;;;;;13.00;11.50;;;;;11.45;53.10;99638.31;146604;598;46012;-72
2022/02/01 05:02:40;;;;;;;;;8.00;8.00;;;;;11.50;53.33;99646.25;146606;626;46021;-72
2022/02/01 05:05:33;;;;;;;;;8.25;7.00;;;;;11.51;53.88;99646.28;146606;569;46016;-73
2022/02/01 05:08:26;;;;;;;;;12.50;8.75;;;;;11.55;53.67;99655.06;146607;583;46020;-73
2022/02/01 05:11:18;;;;;;;;;10.75;8.50;;;;;11.60;53.11;99660.41;146603;578;46017;-74
2022/02/01 05:14:23;;;;;;;;;14.25;9.00;;;;;11.62;52.94;99657.03;146607;574;46008;-75
2022/02/01 05:17:17;;;;;;;;;10.25;8.25;;;;;11.64;53.44;99660.53;146603;607;47010;-74
2022/02/01 05:23:23;;;;;;;;;9.75;8.00;;;;;11.66;53.66;99661.47;146604;575;46010;-74
2022/02/01 05:26:15;;;;;;;;;11.50;10.75;;;;;11.67;53.37;99657.13;146604;603;46008;-77
2022/02/01 05:29:08;;;;;;;;;12.25;10.50;;;;;11.67;53.73;99650.22;146602;597;46010;-73
2022/02/01 05:32:06;;;;;;;;;9.00;8.25;;;;;11.64;53.88;99644.94;146607;573;46008;-76
2022/02/01 05:35:00;;;;;;;;;10.50;9.25;;;;;11.62;54.22;99640.53;146604;577;46010;-75
2022/02/01 05:37:53;;;;;;;;;9.75;9.25;;;;;11.60;54.08;99635.31;146607;578;46008;-72
2022/02/01 05:40:45;;;;;;;;;9.25;8.00;;;;;11.60;53.61;99631.84;146602;574;46017;-76
2022/02/01 05:43:42;;;;;;;;;14.25;11.00;;;;;11.60;54.79;99629.25;146606;586;46020;-69
2022/02/01 05:46:35;;;;;;;;;16.25;12.25;;;;;11.57;54.98;99623.12;146604;606;46017;-67
2022/02/01 05:49:28;;;;;;;;;10.50;10.25;;;;;11.53;55.11;99613.47;146607;617;45020;-67
2022/02/01 05:52:20;;;;;;;;;11.00;11.00;;;;;11.53;55.29;99628.19;146604;671;46016;-70
2022/02/01 05:55:14;;;;;;;;;15.00;12.25;;;;;11.52;55.96;99621.22;146605;608;46020;-70
2022/02/01 05:58:07;;;;;;;;;14.25;13.00;;;;;11.55;54.43;99618.72;146603;564;46917;-69
2022/02/01 06:00:59;;;;;;;;;12.75;12.50;;;;;11.57;54.54;99630.91;146605;601;46008;-70
2022/02/01 06:03:52;;;;;;;;;11.25;11.25;;;;;11.59;55.50;99627.47;146603;582;46010;-70
2022/02/01 06:06:44;;;;;;;;;15.00;12.00;;;;;11.60;55.28;99631.84;146607;580;46020;-73
2022/02/01 06:09:39;;;;;;;;;13.75;12.75;;;;;11.59;56.41;99627.47;146603;589;46916;-71
2022/02/01 06:12:32;;;;;;;;;13.75;12.00;;;;;11.58;55.28;99629.19;146608;675;45020;-71
2022/02/01 06:15:28;;;;;;;;;14.00;12.25;;;;;11.62;55.21;99610.28;146604;620;46010;-71
2022/02/01 06:18:20;;;;;;;;;7.50;7.50;;;;;11.62;56.64;99614.56;146606;593;46012;-70
2022/02/01 06:21:12;;;;;;;;;10.75;10.00;;;;;11.61;55.76;99605.91;146605;655;46012;-71
2022/02/01 06:24:07;;;;;;;;;22.25;19.25;;;;;11.68;54.91;99602.66;146600;659;47008;-71
2022/02/01 06:26:59;;;;;;;;;17.00;15.75;;;;;11.69;54.96;99585.38;146606;699;46010;-68
2022/02/01 06:29:52;;;;;;;;;13.00;13.00;;;;;11.78;54.13;99593.44;146605;617;46020;-68
2022/02/01 06:32:47;;;;;;;;;16.50;15.00;;;;;11.89;53.82;99592.03;146602;602;46017;-70
2022/02/01 06:35:39;;;;;;;;;16.00;11.75;;;;;12.11;53.90;99595.22;146607;590;45044;-73
2022/02/01 06:38:31;;;;;;;;;16.75;13.75;;;;;12.22;53.31;99588.59;146597;588;46011;-75
2022/02/01 06:41:24;;;;;;;;;5.25;3.75;;;;;12.29;53.14;99603.50;146607;617;46020;-74
2022/02/01 06:44:16;;;;;;;;;10.75;10.50;;;;;12.27;53.63;99594.75;146603;593;46029;-74
2022/02/01 06:47:09;;;;;;;;;13.50;11.75;;;;;12.27;53.13;99594.75;146605;580;46008;-75
2022/02/01 06:50:01;;;;;;;;;14.00;12.50;;;;;12.28;53.26;99600.88;146603;579;46016;-74
2022/02/01 06:52:57;;;;;;;;;14.50;12.75;;;;;12.30;54.22;99609.56;146604;611;46020;-74
2022/02/01 06:56:05;;;;;;;;;13.25;11.75;;;;;12.24;54.37;99606.00;146604;576;46016;-74
2022/02/01 06:58:57;;;;;;;;;20.50;17.75;;;;;12.20;54.83;99605.84;146606;569;46008;-73
2022/02/01 07:01:49;;;;;;;;;21.75;15.50;;;;;12.19;54.02;99620.56;146603;565;46016;-74
2022/02/01 07:04:42;;;;;;;;;11.00;11.00;;;;;12.23;54.55;99612.00;146608;565;46008;-74
2022/02/01 07:07:34;;;;;;;;;17.75;13.50;;;;;12.31;54.77;99604.44;146601;622;46016;-74
2022/02/01 07:10:26;;;;;;;;;15.75;14.75;;;;;12.39;55.88;99594.22;146608;577;46008;-72
2022/02/01 07:13:19;;;;;;;;;21.25;18.50;;;;;12.62;54.38;99600.88;146602;574;46016;-74
2022/02/01 07:16:12;;;;;;;;;17.75;15.50;;;;;12.93;53.58;99594.72;146606;564;46008;-74
2022/02/01 07:19:04;;;;;;;;;16.75;14.50;;;;;13.13;53.21;99609.91;146605;572;46012;-73
2022/02/01 07:21:57;;;;;;;;;12.75;12.50;;;;;13.24;53.61;99594.50;146604;594;46027;-69
2022/02/01 07:25:01;;;;;;;;;16.25;14.25;;;;;13.27;53.42;99605.94;146602;569;46016;-69
2022/02/01 07:27:55;;;;;;;;;13.25;13.25;;;;;13.22;53.63;99604.91;146606;585;46008;-68
2022/02/01 07:30:48;;;;;;;;;11.50;10.75;;;;;13.18;53.63;99603.97;146601;582;46016;-73
2022/02/01 07:33:40;;;;;;;;;8.00;7.75;;;;;13.21;51.94;99597.94;146606;621;46020;-72
2022/02/01 07:36:34;;;;;;;;;11.50;10.00;;;;;13.27;52.04;99600.72;146604;582;46017;-75
2022/02/01 07:39:26;;;;;;;;;14.00;11.25;;;;;13.50;52.17;99592.53;146608;592;46008;-73
2022/02/01 07:42:19;;;;;;;;;8.00;6.50;;;;;13.67;51.59;99593.75;146602;603;46010;-71
2022/02/01 07:45:13;;;;;;;;;12.50;11.25;;;;;13.79;52.80;99596.59;146608;631;46008;-75
2022/02/01 07:48:07;;;;;;;;;14.75;12.50;;;;;13.82;51.99;99583.63;146601;602;46016;-75
2022/02/01 07:51:00;;;;;;;;;11.25;9.50;;;;;13.82;51.97;99569.72;146604;638;46020;-75
2022/02/01 07:53:52;;;;;;;;;9.75;9.00;;;;;13.81;51.86;99584.50;146605;620;46027;-73
2022/02/01 07:56:44;;;;;;;;;11.50;9.25;;;;;13.80;51.70;99581.84;146607;589;46020;-76
2022/02/01 07:59:39;;;;;;;;;12.25;9.75;;;;;13.76;52.63;99585.25;146602;738;46010;-74
2022/02/01 08:02:32;;;;;;;;;15.25;14.75;;;;;13.73;52.97;99593.00;146605;676;46021;-75
2022/02/01 08:05:26;;;;;;;;;11.25;11.25;;;;;13.62;53.43;99590.19;146604;581;46010;-74
2022/02/01 08:08:19;;;;;;;;;11.50;8.75;;;;;13.58;53.71;99596.16;146607;579;46021;-69
2022/02/01 08:11:15;;;;;;;;;16.50;10.25;;;;;13.56;53.84;99597.87;146603;591;46016;-76
2022/02/01 08:20:42;;;;;;;;;9.00;8.50;;;;;13.50;53.57;99584.72;146607;680;45022;-75
2022/02/01 08:23:35;;;;;;;;;14.25;14.25;;;;;13.46;54.48;99591.59;146602;570;46012;-75
2022/02/01 08:26:30;;;;;;;;;9.25;7.00;;;;;13.48;55.16;99589.00;146608;657;46008;-75
2022/02/01 08:29:22;;;;;;;;;8.00;6.00;;;;;13.35;55.46;99593.94;146603;575;46016;-74
2022/02/01 08:32:14;;;;;;;;;16.00;13.25;;;;;13.42;55.09;99589.75;146607;641;46020;-74
2022/02/01 08:35:07;;;;;;;;;16.75;13.75;;;;;13.38;54.50;99593.12;146604;570;46915;-75
2022/02/01 08:37:59;;;;;;;;;10.25;8.75;;;;;13.33;55.07;99595.66;146607;607;46021;-73
2022/02/01 08:40:52;;;;;;;;;18.00;13.50;;;;;13.29;55.84;99586.00;146601;637;46016;-75
2022/02/01 08:43:44;;;;;;;;;11.50;11.50;;;;;13.29;55.51;99592.94;146605;578;46020;-75
2022/02/01 08:46:37;;;;;;;;;8.50;8.50;;;;;13.28;56.16;99604.22;146603;566;46016;-75
2022/02/01 08:49:29;;;;;;;;;9.25;8.75;;;;;13.31;56.00;99597.34;146601;635;46921;-75
2022/02/01 08:52:33;;;;;;;;;11.50;10.00;;;;;13.38;56.63;99598.34;146601;617;47010;-75
2022/02/01 08:55:36;;;;;;;;;11.50;11.50;;;;;13.49;55.68;99611.59;146609;642;45020;-75
2022/02/01 08:58:29;;;;;;;;;16.75;13.50;;;;;13.54;56.75;99609.97;146602;601;46010;-75
2022/02/01 09:01:21;;;;;;;;;9.00;8.25;;;;;13.51;56.05;99597.75;146609;624;46008;-74
2022/02/01 09:04:13;;;;;;;;;11.75;11.75;;;;;13.44;56.86;99600.22;146603;655;46012;-75
2022/02/01 09:07:07;;;;;;;;;13.00;8.50;;;;;13.38;57.69;99614.84;146606;703;45021;-75
2022/02/01 09:09:59;;;;;;;;;10.00;9.75;;;;;13.43;55.28;99604.53;146604;570;46915;-75
2022/02/01 09:12:51;;;;;;;;;13.00;11.50;;;;;13.52;55.58;99607.34;146605;678;47008;-75
2022/02/01 09:15:44;;;;;;;;;11.25;11.25;;;;;13.59;57.41;99605.75;146606;571;46029;-75
2022/02/01 09:18:36;;;;;;;;;13.00;11.00;;;;;13.60;57.49;99592.75;146602;579;47008;-74
2022/02/01 09:21:28;;;;;;;;;18.25;15.00;;;;;13.56;57.12;99572.69;146602;610;47010;-75
2022/02/01 09:24:20;;;;;;;;;9.00;7.75;;;;;13.49;57.67;99581.25;146608;717;45020;-74
2022/02/01 09:27:14;;;;;;;;;11.25;11.00;;;;;13.51;56.63;99576.03;146601;671;46017;-74
2022/02/01 09:30:08;;;;;;;;;16.25;16.25;;;;;13.57;56.84;99579.66;146607;620;46020;-75
2022/02/01 09:33:01;;;;;;;;;16.00;13.75;;;;;13.73;56.68;99579.97;146600;627;46012;-75
2022/02/01 09:35:53;;;;;;;;;13.25;13.25;;;;;13.86;56.35;99562.03;146607;606;46008;-76
2022/02/01 09:38:45;;;;;;;;;15.00;14.00;;;;;13.97;55.98;99564.81;146602;576;46016;-75
2022/02/01 09:41:40;;;;;;;;;10.50;10.50;;;;;14.04;55.88;99566.69;146606;598;46008;-73
2022/02/01 09:44:32;;;;;;;;;10.25;10.25;;;;;14.12;55.39;99574.66;146602;566;46017;-75
2022/02/01 09:47:46;;;;;;;;;14.25;13.50;;;;;14.12;55.83;99579.00;146604;569;46020;-76
2022/02/01 09:50:41;;;;;;;;;14.75;10.50;;;;;14.12;55.51;99560.75;146602;570;46017;-74
2022/02/01 09:53:33;;;;;;;;;11.25;9.50;;;;;14.19;54.68;99552.19;146608;572;46020;-75
2022/02/01 09:56:26;;;;;;;;;9.25;9.00;;;;;14.35;54.13;99541.16;146602;640;46915;-75
2022/02/01 09:59:20;;;;;;;;;11.50;9.25;;;;;14.40;54.99;99539.53;146606;638;46021;-73
2022/02/01 10:02:16;;;;;;;;;13.25;11.75;;;;;14.50;54.64;99528.37;146602;573;46016;-75
2022/02/01 10:05:14;;;;;;;;;7.00;7.00;;;;;14.45;53.85;99539.59;146606;601;46020;-75
2022/02/01 10:08:07;;;;;;;;;7.25;6.00;;;;;14.42;54.99;99547.34;146604;574;47010;-74
2022/02/01 10:10:58;;;;;;;;;10.00;9.75;;;;;14.49;54.14;99525.75;146606;737;46020;-74
2022/02/01 10:14:01;;;;;;;;;10.75;10.00;;;;;14.59;54.07;99535.53;146602;569;46016;-74
2022/02/01 10:16:57;;;;;;;;;8.25;8.25;;;;;14.52;54.73;99533.66;146604;570;46020;-74
2022/02/01 10:19:52;;;;;;;;;7.25;7.25;;;;;14.45;53.86;99544.81;146603;610;46016;-74
2022/02/01 10:22:47;;;;;;;;;11.75;9.00;;;;;14.40;55.41;99534.31;146603;609;46020;-74
2022/02/01 10:25:39;;;;;;;;;9.50;7.75;;;;;14.39;54.65;99542.09;146603;616;46016;-74
2022/02/01 10:29:01;;;;;;;;;10.25;10.25;;;;;14.47;54.30;99533.53;146607;669;46008;-74
2022/02/01 10:31:57;;;;;;;;;7.25;6.25;;;;;14.59;55.00;99526.81;146606;686;46012;-73
2022/02/01 10:34:52;;;;;;;;;5.50;5.00;;;;;14.55;55.40;99536.34;146606;672;46021;-75
2022/02/01 10:37:44;;;;;;;;;6.75;5.50;;;;;14.60;55.12;99519.00;146603;613;47012;-74
2022/02/01 10:40:50;;;;;;;;;7.00;6.00;;;;;14.61;54.15;99486.88;146606;611;46032;-73
2022/02/01 10:43:42;;;;;;;;;5.25;5.25;;;;;14.72;54.88;99493.09;146602;741;46916;-74
2022/02/01 10:46:34;;;;;;;;;8.00;7.00;;;;;14.89;54.21;99503.81;146604;611;46008;-74
2022/02/01 10:49:34;;;;;;;;;6.75;5.25;;;;;15.06;54.09;99510.97;146607;614;46011;-74
2022/02/01 10:52:26;;;;;;;;;6.50;6.50;;;;;15.12;53.37;99511.94;146608;586;46020;-74
2022/02/01 10:55:21;;;;;;;;;5.00;4.50;;;;;15.18;54.23;99514.63;146602;655;46016;-73
2022/02/01 10:58:15;;;;;;;;;5.75;5.75;;;;;15.40;53.35;99512.31;146606;594;47008;-73
2022/02/01 11:01:08;;;;;;;;;6.00;6.00;;;;;15.57;52.91;99504.66;146603;588;46016;-74
2022/02/01 11:04:08;;;;;;;;;6.25;4.75;;;;;15.73;52.36;99516.19;146607;566;46013;-74
2022/02/01 11:07:01;;;;;;;;;11.25;9.75;;;;;15.92;51.81;99499.84;146603;585;46029;-74
2022/02/01 11:09:54;;;;;;;;;6.00;6.00;;;;;16.03;51.51;99489.50;146604;575;46020;-75
2022/02/01 11:12:46;;;;;;;;;5.50;5.50;;;;;16.11;50.63;99506.13;146603;571;46022;-73
2022/02/01 11:15:39;;;;;;;;;8.25;6.75;;;;;16.24;51.36;99486.19;146604;588;46008;-74
2022/02/01 11:18:32;;;;;;;;;9.25;8.75;;;;;16.23;50.62;99476.59;146604;583;46916;-74
2022/02/01 11:21:25;;;;;;;;;17.75;15.25;;;;;16.15;50.51;99464.31;146602;577;46021;-74
2022/02/01 11:24:37;;;;;;;;;22.50;16.50;;;;;16.02;51.31;99469.44;146604;614;46016;-74
2022/02/01 11:28:10;;;;;;;;;7.00;7.00;;;;;15.16;51.75;99351.84;146604;571;46021;-73
2022/02/01 11:31:05;;;;;;;;;6.75;5.75;;;;;15.84;51.64;99459.69;146604;598;46016;-74
2022/02/01 11:33:57;;;;;;;;;7.25;6.75;;;;;15.81;51.75;99477.94;146608;640;47008;-75
2022/02/01 11:36:58;;;;;;;;;8.75;6.75;;;;;15.68;51.99;99456.91;146601;705;47010;-75
2022/02/01 11:39:59;;;;;;;;;6.75;5.75;;;;;15.47;52.96;99454.91;146604;663;46008;-74
2022/02/01 11:43:02;;;;;;;;;8.00;7.00;;;;;15.43;52.74;99452.25;146602;580;46016;-74
2022/02/01 11:46:09;;;;;;;;;6.50;5.50;;;;;15.31;52.98;99450.38;146598;583;47921;-74
2022/02/01 11:49:04;;;;;;;;;8.75;6.75;;;;;15.32;53.45;99456.47;146596;604;47011;-74
2022/02/01 11:52:08;;;;;;;;;8.25;7.75;;;;;15.32;53.58;99440.78;146602;613;46020;-74
2022/02/01 11:55:10;;;;;;;;;5.00;4.50;;;;;15.31;53.21;99452.13;146598;582;46016;-74
2022/02/01 11:58:08;;;;;;;;;15.50;13.50;;;;;15.31;53.81;99452.97;146601;634;46021;-74
2022/02/01 12:01:02;;;;;;;;;6.00;5.75;;;;;15.26;53.64;99446.81;146599;614;46010;-74
2022/02/01 12:04:13;;;;;;;;;11.75;10.50;;;;;15.24;53.80;99441.59;146602;594;46021;-74
2022/02/01 12:07:08;;;;;;;;;7.00;7.00;;;;;15.23;53.70;99431.13;146599;579;46016;-75
2022/02/01 12:10:00;;;;;;;;;6.75;6.75;;;;;15.25;54.04;99429.41;146600;653;47008;-75
2022/02/01 12:12:53;;;;;;;;;7.50;7.25;;;;;15.29;53.87;99427.72;146599;651;46016;-74
2022/02/01 12:15:47;;;;;;;;;8.00;6.00;;;;;15.37;53.89;99418.22;146600;614;46020;-74
2022/02/01 12:19:06;;;;;;;;;7.50;6.75;;;;;15.54;53.42;99414.03;146596;620;47916;-74
2022/02/01 12:22:46;;;;;;;;;11.50;7.25;;;;;14.71;52.38;99225.22;146599;591;47008;-74
2022/02/01 12:25:39;;;;;;;;;8.75;6.75;;;;;16.01;51.98;99387.53;146600;574;46030;-74
2022/02/01 12:28:34;;;;;;;;;6.00;4.75;;;;;16.25;51.21;99401.63;146604;592;46008;-75
2022/02/01 12:31:28;;;;;;;;;6.00;5.75;;;;;16.31;50.23;99409.53;146598;650;46012;-75
2022/02/01 12:34:21;;;;;;;;;8.50;6.25;;;;;16.09;50.56;99405.87;146602;610;46008;-76
2022/02/01 12:37:13;;;;;;;;;9.00;8.75;;;;;15.93;51.17;99413.59;146599;573;47010;-74
2022/02/01 12:40:12;;;;;;;;;6.75;6.75;;;;;15.71;51.75;99403.81;146602;655;47012;-75
2022/02/01 12:43:10;;;;;;;;;9.25;8.75;;;;;15.51;52.23;99406.19;146599;569;47010;-74
2022/02/01 12:49:37;;;;;;;;;7.50;7.00;;;;;15.30;52.63;99392.91;146606;611;46010;-75
2022/02/01 12:52:38;;;;;;;;;7.25;6.25;;;;;15.27;52.28;99391.16;146609;565;46008;-74
2022/02/01 12:55:31;;;;;;;;;3.75;3.00;;;;;15.27;52.72;99409.44;146605;569;46916;-74
2022/02/01 12:58:24;;;;;;;;;6.50;5.75;;;;;15.31;51.50;99399.87;146608;618;46008;-75
2022/02/01 13:01:17;;;;;;;;;7.25;5.50;;;;;15.34;51.82;99411.22;146602;590;46915;-76
2022/02/01 13:04:10;;;;;;;;;7.00;5.25;;;;;15.46;51.74;99402.66;146606;714;46008;-74
2022/02/01 13:07:03;;;;;;;;;6.50;6.50;;;;;15.56;51.51;99406.25;146599;566;46016;-75
2022/02/01 13:16:41;;;;;;;;;4.00;4.00;;;;;15.29;50.47;99350.22;146608;573;46010;-75
2022/02/01 13:23:05;;;;;;;;;8.75;6.50;;;;;15.62;50.92;99416.75;146606;566;47010;-75
2022/02/01 13:25:58;;;;;;;;;9.75;7.00;;;;;15.73;51.04;99417.75;146602;652;47012;-75
2022/02/01 13:29:19;;;;;;;;;9.75;7.75;;;;;15.06;50.87;99308.22;146607;614;46008;-75
2022/02/01 13:32:14;;;;;;;;;6.75;6.00;;;;;15.70;50.76;99423.84;146604;631;46016;-75
2022/02/01 13:35:12;;;;;;;;;9.00;6.00;;;;;15.70;50.46;99415.13;146607;680;46020;-76
2022/02/01 13:38:13;;;;;;;;;12.75;10.75;;;;;15.71;50.48;99424.72;146604;603;47010;-74
2022/02/01 13:41:13;;;;;;;;;13.25;9.25;;;;;15.72;50.48;99426.47;146606;599;46021;-74
2022/02/01 13:44:06;;;;;;;;;9.50;8.50;;;;;15.66;50.40;99432.47;146602;607;46016;-75
2022/02/01 13:47:10;;;;;;;;;10.75;7.00;;;;;15.64;50.80;99441.16;146608;732;46020;-74
2022/02/01 13:50:03;;;;;;;;;9.25;6.75;;;;;15.62;51.09;99448.09;146603;633;46010;-74
2022/02/01 13:53:08;;;;;;;;;14.50;13.00;;;;;15.59;51.54;99448.06;146608;612;46020;-75
2022/02/01 13:56:11;;;;;;;;;10.50;7.75;;;;;15.53;51.29;99438.44;146602;691;46017;-75
2022/02/01 13:59:14;;;;;;;;;14.75;14.50;;;;;15.54;51.45;99442.78;146605;618;46020;-74
2022/02/01 14:02:10;;;;;;;;;9.50;9.00;;;;;15.49;51.56;99439.25;146603;626;46916;-75
2022/02/01 14:05:06;;;;;;;;;18.75;17.50;;;;;15.50;51.46;99430.56;146606;656;46020;-75
2022/02/01 14:16:05;;;;;;;;;6.00;6.00;;;;;15.60;50.98;99431.53;146603;665;46012;-74
2022/02/01 14:27:30;;;;;;;;;10.75;10.25;;;;;15.93;49.83;99426.66;146600;677;47913;-74
2022/02/01 14:36:44;;;;;;;;;9.50;9.00;;;;;15.92;49.89;99432.75;146606;702;46012;-74
2022/02/01 14:46:31;;;;;;;;;10.25;9.00;;;;;15.76;50.29;99420.38;146605;566;46010;-74
2022/02/01 14:49:26;;;;;;;;;15.00;13.75;;;;;15.66;50.15;99411.56;146601;563;46020;-74
2022/02/01 14:52:19;;;;;;;;;10.75;8.25;;;;;15.62;50.85;99414.13;146603;644;46016;-73
2022/02/01 14:55:14;;;;;;;;;6.25;6.00;;;;;15.57;50.61;99423.66;146606;612;46021;-74
2022/02/01 15:07:53;;;;;;;;;12.25;11.50;;;;;15.56;51.30;99408.84;146605;586;46020;-74
2022/02/01 15:13:57;;;;;;;;;8.25;8.00;;;;;15.49;50.86;99418.38;146606;565;46012;-74
2022/02/01 15:16:50;;;;;;;;;13.75;10.50;;;;;15.44;51.15;99420.91;146603;624;46017;-74
2022/02/01 15:19:42;;;;;;;;;8.25;8.25;;;;;15.37;51.31;99418.22;146603;580;46020;-74
2022/02/01 15:22:34;;;;;;;;;10.75;9.50;;;;;15.36;51.00;99412.13;146602;572;46017;-73
2022/02/01 15:25:27;;;;;;;;;6.75;5.25;;;;;15.32;51.59;99419.91;146606;585;46008;-74
2022/02/01 15:28:20;;;;;;;;;7.00;7.00;;;;;15.30;51.52;99434.72;146606;584;46915;-74
2022/02/01 15:31:12;;;;;;;;;7.00;7.00;;;;;15.25;52.65;99429.41;146609;577;45921;-74
2022/02/01 15:34:04;;;;;;;;;6.00;4.75;;;;;15.19;53.02;99437.16;146605;595;46016;-74
2022/02/01 15:36:59;;;;;;;;;7.25;6.00;;;;;15.13;53.92;99448.41;146608;580;46020;-75
2022/02/01 15:59:23;;;;;;;;;8.00;8.00;;;;;14.99;54.64;99484.78;146605;582;46012;-73
2022/02/01 16:02:16;;;;;;;;;7.00;7.00;;;;;14.99;54.00;99487.41;146604;688;46021;-73
2022/02/01 16:05:09;;;;;;;;;10.00;8.75;;;;;15.01;54.22;99493.53;146605;644;46016;-79